Time;durP1;ratioP1;P1;durP2;ratioP2;P2;SDS_P1;SDS_P2;PMS_P1;PMS_P2;Temp;Humidity;BMP_temperature;BMP_pressure;BME280_temperature;BME280_humidity;BME280_pressure;Samples;Min_cycle;Max_cycle;Signal;HPM_P1;HPM_P2
2023/02/04 00:01:21;;;;;;;;;;;4.70;99.90;;;;;;5056514;28;19959;-72
2023/02/04 00:03:52;;;;;;;;;;;4.60;99.90;;;;;;5067674;28;19925;-74
2023/02/04 00:06:24;;;;;;;;;;;4.60;99.90;;;;;;5042260;28;19925;-72
2023/02/04 00:08:56;;;;;;;;;;;4.70;99.90;;;;;;5070605;28;19931;-72
2023/02/04 00:11:28;;;;;;;;;;;4.70;99.90;;;;;;5051154;28;19925;-72
2023/02/04 00:13:59;;;;;;;;;;;4.60;99.90;;;;;;5065892;28;19954;-72
2023/02/04 00:16:31;;;;;;;;;;;4.70;99.90;;;;;;5070388;28;19951;-72
2023/02/04 00:18:58;;;;;;;;;;;4.70;99.90;;;;;;5045180;28;20383;-72
2023/02/04 00:21:30;;;;;;;;;;;4.70;99.90;;;;;;5064370;28;19933;-72
2023/02/04 00:24:02;;;;;;;;;;;4.70;99.90;;;;;;5040869;28;19932;-72
2023/02/04 00:26:33;;;;;;;;;;;4.60;99.90;;;;;;5049147;28;19971;-72
2023/02/04 00:29:00;;;;;;;;;;;4.60;99.90;;;;;;5051570;28;19978;-72
2023/02/04 00:31:32;;;;;;;;;;;4.70;99.90;;;;;;5039859;28;20023;-73
2023/02/04 00:34:04;;;;;;;;;;;4.70;99.90;;;;;;5064464;28;20619;-72
2023/02/04 00:36:36;;;;;;;;;;;4.70;99.90;;;;;;5055365;28;19925;-71
2023/02/04 00:39:09;;;;;;;;;;;4.70;99.90;;;;;;5058357;28;19925;-73
2023/02/04 00:41:40;;;;;;;;;;;4.70;99.90;;;;;;5074148;28;19924;-71
2023/02/04 00:44:07;;;;;;;;;;;4.70;99.90;;;;;;5069642;28;19931;-72
2023/02/04 00:46:34;;;;;;;;;;;4.70;99.90;;;;;;5064170;28;19925;-72
2023/02/04 00:49:05;;;;;;;;;;;4.80;99.90;;;;;;5056967;28;20345;-71
2023/02/04 00:51:37;;;;;;;;;;;4.80;99.90;;;;;;5049078;28;19924;-71
2023/02/04 00:54:04;;;;;;;;;;;4.80;99.90;;;;;;5044871;28;19929;-72
2023/02/04 00:56:36;;;;;;;;;;;4.80;99.90;;;;;;5050350;28;19928;-72
2023/02/04 00:59:03;;;;;;;;;;;4.70;99.90;;;;;;5041392;28;19985;-71
2023/02/04 01:01:35;;;;;;;;;;;4.80;99.90;;;;;;5055562;28;19932;-72
2023/02/04 01:04:06;;;;;;;;;;;4.80;99.90;;;;;;5037707;28;19995;-72
2023/02/04 01:06:33;;;;;;;;;;;4.80;99.90;;;;;;5061040;28;19924;-71
2023/02/04 01:09:01;;;;;;;;;;;4.70;99.90;;;;;;5066197;28;19952;-71
2023/02/04 01:11:28;;;;;;;;;;;4.80;99.90;;;;;;5063572;28;19972;-72
2023/02/04 01:13:55;;;;;;;;;;;4.70;99.90;;;;;;5060454;28;19960;-71
2023/02/04 01:16:27;;;;;;;;;;;4.80;99.90;;;;;;5057412;28;19929;-72
2023/02/04 01:18:59;;;;;;;;;;;4.80;99.90;;;;;;5066699;28;20438;-72
2023/02/04 01:21:26;;;;;;;;;;;4.80;99.90;;;;;;5036870;28;19983;-73
2023/02/04 01:23:52;;;;;;;;;;;4.80;99.90;;;;;;5054847;28;19925;-72
2023/02/04 01:26:19;;;;;;;;;;;4.80;99.90;;;;;;5072755;28;20031;-72
2023/02/04 01:28:52;;;;;;;;;;;4.70;99.90;;;;;;5063396;28;19925;-72
2023/02/04 01:31:24;;;;;;;;;;;4.80;99.90;;;;;;5055991;28;19929;-72
2023/02/04 01:33:51;;;;;;;;;;;4.70;99.90;;;;;;5056856;28;19928;-72
2023/02/04 01:36:23;;;;;;;;;;;4.80;99.90;;;;;;5044957;28;19975;-72
2023/02/04 01:38:55;;;;;;;;;;;4.80;99.90;;;;;;5095698;28;19952;-71
2023/02/04 01:41:21;;;;;;;;;;;4.80;99.90;;;;;;5075097;28;20311;-71
2023/02/04 01:43:48;;;;;;;;;;;4.70;99.90;;;;;;5058866;28;19932;-72
2023/02/04 01:46:20;;;;;;;;;;;4.70;99.90;;;;;;5053315;28;19932;-72
2023/02/04 01:48:52;;;;;;;;;;;4.70;99.90;;;;;;5038056;28;19932;-72
2023/02/04 01:51:27;;;;;;;;;;;4.80;99.90;;;;;;5054566;28;20011;-72
2023/02/04 01:53:54;;;;;;;;;;;4.80;99.90;;;;;;5067612;28;20436;-72
2023/02/04 01:56:22;;;;;;;;;;;4.70;99.90;;;;;;5057091;28;19933;-74
2023/02/04 01:58:56;;;;;;;;;;;4.70;99.90;;;;;;5047214;28;19925;-72
2023/02/04 02:01:35;;;;;;;;;;;4.80;99.90;;;;;;5044076;28;19924;-73
2023/02/04 02:04:11;;;;;;;;;;;4.70;99.90;;;;;;5067874;28;19947;-72
2023/02/04 02:06:40;;;;;;;;;;;4.80;99.90;;;;;;5068530;28;19979;-72
2023/02/04 02:09:12;;;;;;;;;;;4.80;99.90;;;;;;5054945;28;20334;-73
2023/02/04 02:11:44;;;;;;;;;;;4.80;99.90;;;;;;5068489;28;19931;-72
2023/02/04 02:14:16;;;;;;;;;;;4.80;99.90;;;;;;5069545;28;19925;-72
2023/02/04 02:16:47;;;;;;;;;;;4.70;99.90;;;;;;5065004;28;19932;-71
2023/02/04 02:19:19;;;;;;;;;;;4.70;99.90;;;;;;5068193;28;20376;-72
2023/02/04 02:21:54;;;;;;;;;;;4.80;99.90;;;;;;5070583;28;19928;-71
2023/02/04 02:24:27;;;;;;;;;;;4.70;99.90;;;;;;5062316;28;19924;-73
2023/02/04 02:27:00;;;;;;;;;;;4.80;99.90;;;;;;5057801;28;20318;-72
2023/02/04 02:29:27;;;;;;;;;;;4.80;99.90;;;;;;5072108;28;20448;-72
2023/02/04 02:31:59;;;;;;;;;;;4.80;99.90;;;;;;5052554;28;19931;-72
2023/02/04 02:34:30;;;;;;;;;;;4.80;99.90;;;;;;5053197;28;20035;-72
2023/02/04 02:37:02;;;;;;;;;;;4.80;99.90;;;;;;5054854;28;20292;-73
2023/02/04 02:39:29;;;;;;;;;;;4.80;99.90;;;;;;5041836;28;20567;-71
2023/02/04 02:42:01;;;;;;;;;;;4.80;99.90;;;;;;5049801;28;19951;-72
2023/02/04 02:44:33;;;;;;;;;;;4.90;99.90;;;;;;5064832;28;20321;-72
2023/02/04 02:47:04;;;;;;;;;;;4.90;99.90;;;;;;5051547;28;19932;-72
2023/02/04 02:49:39;;;;;;;;;;;4.90;99.90;;;;;;5067386;28;20395;-72
2023/02/04 02:52:10;;;;;;;;;;;4.90;99.90;;;;;;5066767;28;19979;-72
2023/02/04 02:54:38;;;;;;;;;;;5.00;99.90;;;;;;5063781;28;19924;-72
2023/02/04 02:57:14;;;;;;;;;;;5.00;99.90;;;;;;5063810;28;19933;-72
2023/02/04 02:59:40;;;;;;;;;;;4.90;99.90;;;;;;5065459;28;19959;-71
2023/02/04 03:02:08;;;;;;;;;;;5.00;99.90;;;;;;5035055;28;19990;-71
2023/02/04 03:04:46;;;;;;;;;;;4.90;99.90;;;;;;5050982;28;20413;-71
2023/02/04 03:07:22;;;;;;;;;;;4.90;99.90;;;;;;5068401;28;19924;-71
2023/02/04 03:09:54;;;;;;;;;;;4.90;99.90;;;;;;5054811;28;19925;-72
2023/02/04 03:12:20;;;;;;;;;;;4.90;99.90;;;;;;5061283;28;19943;-72
2023/02/04 03:14:54;;;;;;;;;;;4.90;99.90;;;;;;5069263;28;19931;-72
2023/02/04 03:17:26;;;;;;;;;;;4.90;99.90;;;;;;5069691;28;19948;-72
2023/02/04 03:19:58;;;;;;;;;;;4.80;99.90;;;;;;5063590;28;19929;-71
2023/02/04 03:22:25;;;;;;;;;;;4.90;99.90;;;;;;5052264;28;20015;-73
2023/02/04 03:24:57;;;;;;;;;;;4.80;99.90;;;;;;5050158;28;19929;-71
2023/02/04 03:27:24;;;;;;;;;;;4.80;99.90;;;;;;5058924;28;20019;-72
2023/02/04 03:29:50;;;;;;;;;;;4.80;99.90;;;;;;5050570;28;19925;-72
2023/02/04 03:32:17;;;;;;;;;;;4.80;99.90;;;;;;5041121;28;19975;-72
2023/02/04 03:34:44;;;;;;;;;;;4.80;99.90;;;;;;5061628;28;19951;-73
2023/02/04 03:37:15;;;;;;;;;;;4.80;99.90;;;;;;5053779;28;19925;-72
2023/02/04 03:39:47;;;;;;;;;;;4.80;99.90;;;;;;5047606;28;19929;-71
2023/02/04 03:42:19;;;;;;;;;;;4.80;99.90;;;;;;5054481;28;19950;-72
2023/02/04 03:44:45;;;;;;;;;;;4.70;99.90;;;;;;5059290;28;19925;-71
2023/02/04 03:47:17;;;;;;;;;;;4.70;99.90;;;;;;5061682;28;20302;-72
2023/02/04 03:49:48;;;;;;;;;;;4.60;99.90;;;;;;5066384;28;19925;-71
2023/02/04 03:52:15;;;;;;;;;;;4.60;99.90;;;;;;5068495;28;20383;-72
2023/02/04 03:54:47;;;;;;;;;;;4.60;99.90;;;;;;5059389;28;19925;-72
2023/02/04 03:57:18;;;;;;;;;;;4.50;99.90;;;;;;5062632;28;19999;-72
2023/02/04 03:59:50;;;;;;;;;;;4.50;99.90;;;;;;5034649;28;20019;-72
2023/02/04 04:02:22;;;;;;;;;;;4.40;99.90;;;;;;5050846;28;19928;-72
2023/02/04 04:04:53;;;;;;;;;;;4.40;99.90;;;;;;5050670;28;19925;-71
2023/02/04 04:07:25;;;;;;;;;;;4.40;99.90;;;;;;5061130;28;19924;-72
2023/02/04 04:09:52;;;;;;;;;;;4.40;99.90;;;;;;5061308;28;20075;-73
2023/02/04 04:12:23;;;;;;;;;;;4.30;99.90;;;;;;5056086;28;19978;-72
2023/02/04 04:14:55;;;;;;;;;;;4.30;99.90;;;;;;5051201;28;19924;-72
2023/02/04 04:17:26;;;;;;;;;;;4.30;99.90;;;;;;5066825;28;19998;-74
2023/02/04 04:19:58;;;;;;;;;;;4.40;99.90;;;;;;5052162;28;19925;-72
2023/02/04 04:22:30;;;;;;;;;;;4.40;99.90;;;;;;5062401;28;19931;-72
2023/02/04 04:25:02;;;;;;;;;;;4.40;99.90;;;;;;5067549;28;20391;-71
2023/02/04 04:27:33;;;;;;;;;;;4.40;99.90;;;;;;5061723;28;19980;-72
2023/02/04 04:30:00;;;;;;;;;;;4.40;99.90;;;;;;5043203;28;19972;-72
2023/02/04 04:32:32;;;;;;;;;;;4.40;99.90;;;;;;5055517;28;19935;-72
2023/02/04 04:35:04;;;;;;;;;;;4.50;99.90;;;;;;5073122;28;19971;-72
2023/02/04 04:37:35;;;;;;;;;;;4.50;99.90;;;;;;5055476;28;19925;-72
2023/02/04 04:40:02;;;;;;;;;;;4.60;99.90;;;;;;5074132;28;19929;-72
2023/02/04 04:42:29;;;;;;;;;;;4.50;99.90;;;;;;5062793;28;19925;-72
2023/02/04 04:44:56;;;;;;;;;;;4.50;99.90;;;;;;5088071;28;20386;-72
2023/02/04 04:47:27;;;;;;;;;;;4.50;99.90;;;;;;5069792;28;20355;-72
2023/02/04 04:49:59;;;;;;;;;;;4.50;99.90;;;;;;5049470;28;19931;-72
2023/02/04 04:52:31;;;;;;;;;;;4.50;99.90;;;;;;5070641;28;19925;-72
2023/02/04 04:55:04;;;;;;;;;;;4.50;99.90;;;;;;5067035;28;19924;-73
2023/02/04 04:57:31;;;;;;;;;;;4.40;99.90;;;;;;5063946;28;19931;-71
2023/02/04 05:00:03;;;;;;;;;;;4.40;99.90;;;;;;5052958;28;19928;-72
2023/02/04 05:02:30;;;;;;;;;;;4.40;99.90;;;;;;5053579;28;19925;-72
2023/02/04 05:04:57;;;;;;;;;;;4.40;99.90;;;;;;5057076;28;19930;-71
2023/02/04 05:07:23;;;;;;;;;;;4.30;99.90;;;;;;5052655;28;19925;-72
2023/02/04 05:09:55;;;;;;;;;;;4.20;99.90;;;;;;5054501;28;20387;-72
2023/02/04 05:12:27;;;;;;;;;;;4.20;99.90;;;;;;5060972;28;19924;-71
2023/02/04 05:14:58;;;;;;;;;;;4.20;99.90;;;;;;5067985;28;19924;-72
2023/02/04 05:17:30;;;;;;;;;;;4.10;99.90;;;;;;5066893;28;19928;-71
2023/02/04 05:20:02;;;;;;;;;;;4.00;99.90;;;;;;5062274;28;19925;-72
2023/02/04 05:22:34;;;;;;;;;;;4.00;99.90;;;;;;5066186;28;20307;-72
2023/02/04 05:25:05;;;;;;;;;;;3.90;99.90;;;;;;5046084;28;20023;-72
2023/02/04 05:27:37;;;;;;;;;;;3.90;99.90;;;;;;5062068;28;20391;-72
2023/02/04 05:30:10;;;;;;;;;;;3.80;99.90;;;;;;5054791;28;19931;-72
2023/02/04 05:32:37;;;;;;;;;;;3.80;99.90;;;;;;5048576;28;19931;-72
2023/02/04 05:35:09;;;;;;;;;;;3.70;99.90;;;;;;5065573;28;20303;-72
2023/02/04 05:37:40;;;;;;;;;;;3.70;99.90;;;;;;5063180;28;19932;-72
2023/02/04 05:40:12;;;;;;;;;;;3.70;99.90;;;;;;5068862;28;20391;-72
2023/02/04 05:42:44;;;;;;;;;;;3.60;99.90;;;;;;5047374;28;19930;-73
2023/02/04 05:45:17;;;;;;;;;;;3.60;99.90;;;;;;5067354;28;19931;-71
2023/02/04 05:47:49;;;;;;;;;;;3.50;99.90;;;;;;5061874;28;19925;-71
2023/02/04 05:50:21;;;;;;;;;;;3.50;99.90;;;;;;5053056;28;19925;-72
2023/02/04 05:52:48;;;;;;;;;;;3.50;99.90;;;;;;5036331;28;20019;-72
2023/02/04 05:55:19;;;;;;;;;;;3.40;99.90;;;;;;5058384;28;19925;-71
2023/02/04 05:57:51;;;;;;;;;;;3.40;99.90;;;;;;5061194;28;20399;-71
2023/02/04 06:00:23;;;;;;;;;;;3.40;99.90;;;;;;5040318;28;19939;-71
2023/02/04 06:02:55;;;;;;;;;;;3.30;99.90;;;;;;5053235;28;20016;-72
2023/02/04 06:05:26;;;;;;;;;;;3.30;99.90;;;;;;5064922;28;19969;-71
2023/02/04 06:07:53;;;;;;;;;;;3.30;99.90;;;;;;5052520;28;19929;-72
2023/02/04 06:10:25;;;;;;;;;;;3.30;99.90;;;;;;5036819;28;19932;-72
2023/02/04 06:12:56;;;;;;;;;;;3.30;99.90;;;;;;5050833;28;19925;-72
2023/02/04 06:15:23;;;;;;;;;;;3.20;99.90;;;;;;5064614;28;19924;-72
2023/02/04 06:17:55;;;;;;;;;;;3.20;99.90;;;;;;5058274;28;19930;-71
2023/02/04 06:20:26;;;;;;;;;;;3.30;99.90;;;;;;5056159;28;20015;-73
2023/02/04 06:22:53;;;;;;;;;;;3.20;99.90;;;;;;5066955;28;19929;-71
2023/02/04 06:25:25;;;;;;;;;;;3.20;99.90;;;;;;5072165;28;20387;-72
2023/02/04 06:27:56;;;;;;;;;;;3.20;99.90;;;;;;5063815;28;19932;-72
2023/02/04 06:30:28;;;;;;;;;;;3.20;99.90;;;;;;5062673;28;20022;-72
2023/02/04 06:32:55;;;;;;;;;;;3.30;99.90;;;;;;5063757;28;19925;-72
2023/02/04 06:35:21;;;;;;;;;;;3.40;99.90;;;;;;5063534;28;19925;-72
2023/02/04 06:37:48;;;;;;;;;;;3.40;99.90;;;;;;5044248;28;19925;-72
2023/02/04 06:40:20;;;;;;;;;;;3.40;99.90;;;;;;5051477;28;20303;-72
2023/02/04 06:42:52;;;;;;;;;;;3.40;99.90;;;;;;5051707;28;20007;-73
2023/02/04 06:45:18;;;;;;;;;;;3.40;99.90;;;;;;5061792;28;19948;-71
2023/02/04 06:47:50;;;;;;;;;;;3.30;99.90;;;;;;5056345;28;19925;-73
2023/02/04 06:50:17;;;;;;;;;;;3.30;99.90;;;;;;5056971;28;19925;-72
2023/02/04 06:52:49;;;;;;;;;;;3.20;99.90;;;;;;5064789;28;20344;-72
2023/02/04 06:55:21;;;;;;;;;;;3.20;99.90;;;;;;5071028;28;19928;-72
2023/02/04 06:57:53;;;;;;;;;;;3.20;99.90;;;;;;5064451;28;19932;-73
2023/02/04 07:00:24;;;;;;;;;;;3.20;99.90;;;;;;5064357;28;19925;-72
2023/02/04 07:02:51;;;;;;;;;;;3.20;99.90;;;;;;5064988;28;20020;-72
2023/02/04 07:05:23;;;;;;;;;;;3.20;99.90;;;;;;5040388;28;20411;-73
2023/02/04 07:07:55;;;;;;;;;;;3.20;99.90;;;;;;5071171;28;19931;-71
2023/02/04 07:10:22;;;;;;;;;;;3.20;99.90;;;;;;5037297;28;20383;-72
2023/02/04 07:12:54;;;;;;;;;;;3.20;99.90;;;;;;5043065;28;19936;-72
2023/02/04 07:15:25;;;;;;;;;;;3.30;99.90;;;;;;5066337;28;19956;-72
2023/02/04 07:17:52;;;;;;;;;;;3.30;99.90;;;;;;5057877;28;20466;-72
2023/02/04 07:20:24;;;;;;;;;;;3.30;99.90;;;;;;5054056;28;20373;-73
2023/02/04 07:22:56;;;;;;;;;;;3.40;99.90;;;;;;5060460;28;19925;-71
2023/02/04 07:25:23;;;;;;;;;;;3.40;99.90;;;;;;5045948;28;19932;-72
2023/02/04 07:27:55;;;;;;;;;;;3.50;99.90;;;;;;5069638;28;19931;-72
2023/02/04 07:30:26;;;;;;;;;;;3.50;99.90;;;;;;5046880;28;19925;-72
2023/02/04 07:32:59;;;;;;;;;;;3.50;99.90;;;;;;5055283;28;19948;-72
2023/02/04 07:35:31;;;;;;;;;;;3.50;99.90;;;;;;5050973;28;19931;-72
2023/02/04 07:38:03;;;;;;;;;;;3.50;99.90;;;;;;5051742;28;19989;-75
2023/02/04 07:40:30;;;;;;;;;;;3.50;99.90;;;;;;5067656;28;19930;-72
2023/02/04 07:42:57;;;;;;;;;;;3.50;99.90;;;;;;5072068;28;20406;-71
2023/02/04 07:45:32;;;;;;;;;;;3.50;99.90;;;;;;5070486;28;19929;-73
2023/02/04 07:48:02;;;;;;;;;;;3.50;99.90;;;;;;5085885;28;19970;-73
2023/02/04 07:50:34;;;;;;;;;;;3.50;99.90;;;;;;5055991;28;20454;-73
2023/02/04 07:53:08;;;;;;;;;;;3.50;99.90;;;;;;5054964;28;19925;-72
2023/02/04 07:55:36;;;;;;;;;;;3.60;99.90;;;;;;5049494;28;19925;-72
2023/02/04 07:58:09;;;;;;;;;;;3.50;99.90;;;;;;5055598;28;20016;-72
2023/02/04 08:00:41;;;;;;;;;;;3.60;99.90;;;;;;5075957;28;19932;-72
2023/02/04 08:03:10;;;;;;;;;;;3.60;99.90;;;;;;5069720;28;19924;-71
2023/02/04 08:05:40;;;;;;;;;;;3.70;99.90;;;;;;5066976;28;19925;-73
2023/02/04 08:08:14;;;;;;;;;;;3.70;99.90;;;;;;5066168;28;19963;-72
2023/02/04 08:10:44;;;;;;;;;;;3.80;99.90;;;;;;5049004;28;20402;-72
2023/02/04 08:13:21;;;;;;;;;;;3.80;99.90;;;;;;5067930;28;19994;-72
2023/02/04 08:16:04;;;;;;;;;;;3.90;99.90;;;;;;5062257;28;19929;-74
2023/02/04 08:18:34;;;;;;;;;;;3.90;99.90;;;;;;5045557;28;19925;-71
2023/02/04 08:21:06;;;;;;;;;;;4.00;99.90;;;;;;5068356;28;20019;-72
2023/02/04 08:23:40;;;;;;;;;;;4.00;99.90;;;;;;5065538;28;19931;-73
2023/02/04 08:26:10;;;;;;;;;;;4.00;99.90;;;;;;5047093;28;19932;-72
2023/02/04 08:28:39;;;;;;;;;;;4.10;99.90;;;;;;5064523;28;19928;-72
2023/02/04 08:31:12;;;;;;;;;;;4.10;99.90;;;;;;5061714;28;19979;-72
2023/02/04 08:33:42;;;;;;;;;;;4.10;99.90;;;;;;5049964;28;19932;-72
2023/02/04 08:36:17;;;;;;;;;;;4.20;99.90;;;;;;5067321;28;20291;-73
2023/02/04 08:38:51;;;;;;;;;;;4.20;99.90;;;;;;5064990;28;20015;-73
2023/02/04 08:41:41;;;;;;;;;;;4.20;99.90;;;;;;5067815;28;20298;-73
2023/02/04 08:44:15;;;;;;;;;;;4.30;99.90;;;;;;5052773;28;19931;-72
2023/02/04 08:46:53;;;;;;;;;;;4.40;99.90;;;;;;5066197;28;19924;-73
2023/02/04 08:49:36;;;;;;;;;;;4.40;99.90;;;;;;5068380;28;20018;-72
2023/02/04 08:52:06;;;;;;;;;;;4.50;99.90;;;;;;5068192;28;20470;-72
2023/02/04 08:54:40;;;;;;;;;;;4.60;99.90;;;;;;5065317;28;20418;-72
2023/02/04 08:57:11;;;;;;;;;;;4.60;99.90;;;;;;5063022;28;19950;-73
2023/02/04 08:59:47;;;;;;;;;;;4.60;99.90;;;;;;5063270;28;19932;-73
2023/02/04 09:02:16;;;;;;;;;;;4.60;99.90;;;;;;5049717;28;19929;-72
2023/02/04 09:04:47;;;;;;;;;;;4.70;99.90;;;;;;5076596;28;20420;-72
2023/02/04 09:07:17;;;;;;;;;;;4.70;99.90;;;;;;5059672;28;20406;-72
2023/02/04 09:09:47;;;;;;;;;;;4.70;99.90;;;;;;5047984;28;19925;-72
2023/02/04 09:12:17;;;;;;;;;;;4.70;99.90;;;;;;5048088;28;19924;-72
2023/02/04 09:14:50;;;;;;;;;;;4.80;99.90;;;;;;5040299;28;20024;-75
2023/02/04 09:17:20;;;;;;;;;;;4.80;99.90;;;;;;5068080;28;19964;-72
2023/02/04 09:19:50;;;;;;;;;;;4.80;99.90;;;;;;5075289;28;19924;-72
2023/02/04 09:22:20;;;;;;;;;;;4.90;99.90;;;;;;5043127;28;20316;-73
2023/02/04 09:24:55;;;;;;;;;;;4.90;99.90;;;;;;5052115;28;19932;-73
2023/02/04 09:27:26;;;;;;;;;;;4.90;99.90;;;;;;5068467;28;19925;-72
2023/02/04 09:29:56;;;;;;;;;;;5.00;99.90;;;;;;5070983;28;20281;-72
2023/02/04 09:32:25;;;;;;;;;;;5.00;99.90;;;;;;5053733;28;19925;-72
2023/02/04 09:34:56;;;;;;;;;;;5.10;99.90;;;;;;5074648;28;19924;-73
2023/02/04 09:37:30;;;;;;;;;;;5.10;99.90;;;;;;5051497;28;19931;-72
2023/02/04 09:40:00;;;;;;;;;;;5.10;99.90;;;;;;5054204;28;20302;-73
2023/02/04 09:42:29;;;;;;;;;;;5.10;99.90;;;;;;5046376;28;19928;-73
2023/02/04 09:45:01;;;;;;;;;;;5.20;99.90;;;;;;5052703;28;19964;-72
2023/02/04 09:47:30;;;;;;;;;;;5.10;99.90;;;;;;5070409;28;19929;-72
2023/02/04 09:50:19;;;;;;;;;;;5.20;99.90;;;;;;5063319;28;20375;-71
2023/02/04 09:52:58;;;;;;;;;;;5.10;99.90;;;;;;5069938;28;19964;-75
2023/02/04 09:55:40;;;;;;;;;;;5.10;99.90;;;;;;5063651;28;20036;-75
2023/02/04 09:58:35;;;;;;;;;;;5.20;99.90;;;;;;5066718;28;19978;-72
2023/02/04 10:01:14;;;;;;;;;;;5.10;99.90;;;;;;5069882;28;19932;-72
2023/02/04 10:03:50;;;;;;;;;;;5.20;99.90;;;;;;5052255;28;19925;-72
2023/02/04 10:06:36;;;;;;;;;;;5.20;99.90;;;;;;5070372;28;20012;-73
2023/02/04 10:09:32;;;;;;;;;;;5.10;99.90;;;;;;5069815;28;19978;-73
2023/02/04 10:12:11;;;;;;;;;;;5.10;99.90;;;;;;5054947;28;20029;-72
2023/02/04 10:18:03;;;;;;;;;;;5.10;99.90;;;;;;5061806;28;19928;-72
2023/02/04 10:20:49;;;;;;;;;;;5.10;99.90;;;;;;5071493;28;19925;-72
2023/02/04 10:23:21;;;;;;;;;;;5.10;99.90;;;;;;5069912;28;19955;-72
2023/02/04 10:25:57;;;;;;;;;;;5.20;99.90;;;;;;5066724;28;19925;-73
2023/02/04 10:28:35;;;;;;;;;;;5.30;99.90;;;;;;5065818;28;19928;-72
2023/02/04 10:31:28;;;;;;;;;;;5.30;99.90;;;;;;5052961;28;19997;-71
2023/02/04 10:34:10;;;;;;;;;;;5.40;99.90;;;;;;5064687;28;20376;-72
2023/02/04 10:36:42;;;;;;;;;;;5.40;99.90;;;;;;5056818;28;20393;-72
2023/02/04 10:39:17;;;;;;;;;;;5.50;99.90;;;;;;5064035;28;19924;-73
2023/02/04 10:41:55;;;;;;;;;;;5.60;99.90;;;;;;5067068;28;19925;-72
2023/02/04 10:44:34;;;;;;;;;;;5.60;99.90;;;;;;5064803;28;19928;-72
2023/02/04 10:47:08;;;;;;;;;;;5.60;99.90;;;;;;5073786;28;19928;-70
2023/02/04 10:49:38;;;;;;;;;;;5.70;99.90;;;;;;5048623;28;19936;-72
2023/02/04 10:52:16;;;;;;;;;;;5.70;99.90;;;;;;5044276;28;19924;-72
2023/02/04 10:54:46;;;;;;;;;;;5.70;99.90;;;;;;5041555;28;19929;-72
2023/02/04 10:57:21;;;;;;;;;;;5.70;99.90;;;;;;5068394;28;19925;-72
2023/02/04 10:59:54;;;;;;;;;;;5.70;99.90;;;;;;5037104;28;20015;-72
2023/02/04 11:02:41;;;;;;;;;;;5.60;99.90;;;;;;5060343;28;20349;-72
2023/02/04 11:05:16;;;;;;;;;;;5.70;99.90;;;;;;5054028;28;19932;-71
2023/02/04 11:08:22;;;;;;;;;;;5.80;99.90;;;;;;5060172;28;19924;-72
2023/02/04 11:10:57;;;;;;;;;;;5.80;99.90;;;;;;5072364;28;19928;-72
2023/02/04 11:13:38;;;;;;;;;;;5.80;99.90;;;;;;5053244;28;19932;-72
2023/02/04 11:16:08;;;;;;;;;;;5.70;99.90;;;;;;5054274;28;19928;-71
2023/02/04 11:19:03;;;;;;;;;;;5.60;99.90;;;;;;5049912;28;19924;-72
2023/02/04 11:21:53;;;;;;;;;;;5.70;99.90;;;;;;5071079;28;19933;-72
2023/02/04 11:24:35;;;;;;;;;;;5.70;99.90;;;;;;5061934;28;20295;-72
2023/02/04 11:33:37;;;;;;;;;;;6.10;99.90;;;;;;5060132;28;19924;-72
2023/02/04 11:36:16;;;;;;;;;;;6.30;99.90;;;;;;5058548;28;19929;-72
2023/02/04 11:38:57;;;;;;;;;;;6.30;99.90;;;;;;5047349;28;19956;-72
2023/02/04 11:41:34;;;;;;;;;;;6.40;99.90;;;;;;5054162;28;19956;-72
2023/02/04 11:44:05;;;;;;;;;;;6.40;99.90;;;;;;5061393;28;19953;-73
2023/02/04 11:46:34;;;;;;;;;;;6.30;99.90;;;;;;5047903;28;19928;-71
2023/02/04 11:49:15;;;;;;;;;;;6.20;99.90;;;;;;5069792;28;19966;-72
2023/02/04 11:51:45;;;;;;;;;;;6.10;99.90;;;;;;5061549;28;19928;-73
2023/02/04 11:54:18;;;;;;;;;;;6.10;99.90;;;;;;5071269;28;19928;-72
2023/02/04 11:56:47;;;;;;;;;;;6.10;99.90;;;;;;5046400;28;19931;-72
2023/02/04 11:59:23;;;;;;;;;;;6.10;99.90;;;;;;5054062;28;19924;-72
2023/02/04 12:02:03;;;;;;;;;;;6.10;99.90;;;;;;5067498;28;19974;-73
2023/02/04 12:04:33;;;;;;;;;;;6.10;99.90;;;;;;5053378;28;19960;-72
2023/02/04 12:07:11;;;;;;;;;;;6.10;99.90;;;;;;5044886;28;19938;-72
2023/02/04 12:09:48;;;;;;;;;;;6.00;99.90;;;;;;5071324;28;20339;-71
2023/02/04 12:12:23;;;;;;;;;;;6.00;99.90;;;;;;5044707;28;20019;-72
2023/02/04 12:15:01;;;;;;;;;;;5.90;99.90;;;;;;5050348;28;19932;-72
2023/02/04 12:17:35;;;;;;;;;;;5.90;99.90;;;;;;5051608;28;20376;-72
2023/02/04 12:20:05;;;;;;;;;;;5.90;99.90;;;;;;5048924;28;20360;-71
2023/02/04 12:22:39;;;;;;;;;;;5.90;99.90;;;;;;5061310;28;20019;-72
2023/02/04 12:25:15;;;;;;;;;;;5.90;99.90;;;;;;5063042;28;19925;-72
2023/02/04 12:27:50;;;;;;;;;;;5.90;99.90;;;;;;5047364;28;19958;-72
2023/02/04 12:30:24;;;;;;;;;;;5.80;99.90;;;;;;5068033;28;19940;-71
2023/02/04 12:32:59;;;;;;;;;;;5.90;99.90;;;;;;5054169;28;19925;-72
2023/02/04 12:35:28;;;;;;;;;;;5.90;99.90;;;;;;5046854;28;20048;-71
2023/02/04 12:38:02;;;;;;;;;;;5.90;99.90;;;;;;5070946;28;19928;-72
2023/02/04 12:40:35;;;;;;;;;;;6.00;99.90;;;;;;5056482;28;20353;-72
2023/02/04 12:43:11;;;;;;;;;;;6.10;99.90;;;;;;5072347;28;19924;-72
2023/02/04 12:45:48;;;;;;;;;;;6.10;99.90;;;;;;5046232;28;19933;-72
2023/02/04 12:48:27;;;;;;;;;;;6.00;99.90;;;;;;5076507;28;20024;-72
2023/02/04 12:51:08;;;;;;;;;;;5.90;99.90;;;;;;5068802;28;20303;-72
2023/02/04 12:53:37;;;;;;;;;;;5.90;99.90;;;;;;5068747;28;19939;-72
2023/02/04 12:56:23;;;;;;;;;;;5.90;99.90;;;;;;5058072;28;20302;-72
2023/02/04 12:58:51;;;;;;;;;;;5.90;99.90;;;;;;5040914;28;19981;-72
2023/02/04 13:01:24;;;;;;;;;;;6.00;99.90;;;;;;5057361;28;20008;-72
2023/02/04 13:04:02;;;;;;;;;;;6.10;99.90;;;;;;5081127;28;19985;-73
2023/02/04 13:07:06;;;;;;;;;;;6.10;99.90;;;;;;5060573;28;19978;-72
2023/02/04 13:09:35;;;;;;;;;;;6.10;99.90;;;;;;5055154;28;19940;-74
2023/02/04 13:12:07;;;;;;;;;;;6.20;99.90;;;;;;5082339;28;20311;-71
2023/02/04 13:14:42;;;;;;;;;;;6.30;99.90;;;;;;5057304;28;19982;-73
2023/02/04 13:17:48;;;;;;;;;;;6.30;99.90;;;;;;5073408;28;20015;-72
2023/02/04 13:20:38;;;;;;;;;;;6.20;99.90;;;;;;5056745;28;19925;-72
2023/02/04 13:23:08;;;;;;;;;;;6.20;99.90;;;;;;5053983;28;19939;-72
2023/02/04 13:25:38;;;;;;;;;;;6.10;99.90;;;;;;5064271;28;19924;-71
2023/02/04 13:28:08;;;;;;;;;;;6.10;99.90;;;;;;5047327;28;20023;-72
2023/02/04 13:30:39;;;;;;;;;;;6.10;99.90;;;;;;5072506;28;20475;-72
2023/02/04 13:33:09;;;;;;;;;;;6.10;99.90;;;;;;5057329;28;19932;-71
2023/02/04 13:35:44;;;;;;;;;;;6.10;99.90;;;;;;5054016;28;19931;-75
2023/02/04 13:38:16;;;;;;;;;;;6.10;99.90;;;;;;5072147;28;19943;-72
2023/02/04 13:40:59;;;;;;;;;;;6.10;99.90;;;;;;5069334;28;19970;-72
2023/02/04 13:43:31;;;;;;;;;;;6.00;99.90;;;;;;5068989;28;19925;-73
2023/02/04 13:46:06;;;;;;;;;;;5.90;99.90;;;;;;5071114;28;19925;-72
2023/02/04 13:48:36;;;;;;;;;;;6.00;99.90;;;;;;5073818;28;19946;-74
2023/02/04 13:51:07;;;;;;;;;;;6.00;99.90;;;;;;5071381;28;19980;-73
2023/02/04 13:53:38;;;;;;;;;;;6.00;99.90;;;;;;5049752;28;20445;-71
2023/02/04 13:56:08;;;;;;;;;;;6.00;99.90;;;;;;5040791;28;19928;-72
2023/02/04 13:58:44;;;;;;;;;;;6.00;99.90;;;;;;5063326;28;19931;-72
2023/02/04 14:01:16;;;;;;;;;;;6.00;99.90;;;;;;5067660;28;19932;-72
2023/02/04 14:04:00;;;;;;;;;;;6.00;99.90;;;;;;5068372;28;20446;-73
2023/02/04 14:06:33;;;;;;;;;;;5.90;99.90;;;;;;5069429;28;19947;-72
2023/02/04 14:09:13;;;;;;;;;;;5.80;99.90;;;;;;5068414;28;19929;-73
2023/02/04 14:11:47;;;;;;;;;;;5.80;99.90;;;;;;5053664;28;19932;-72
2023/02/04 14:14:26;;;;;;;;;;;5.70;99.90;;;;;;5067018;28;19924;-72
2023/02/04 14:17:30;;;;;;;;;;;5.60;99.90;;;;;;5054074;28;19950;-73
2023/02/04 14:21:04;;;;;;;;;;;5.60;99.90;;;;;;5068001;28;19987;-71
2023/02/04 14:23:44;;;;;;;;;;;5.60;99.90;;;;;;5072099;28;19925;-72
2023/02/04 14:26:31;;;;;;;;;;;5.50;99.90;;;;;;5051778;28;19924;-75
2023/02/04 14:29:10;;;;;;;;;;;5.50;99.90;;;;;;5072211;28;19928;-72
2023/02/04 14:31:49;;;;;;;;;;;5.50;99.90;;;;;;5066526;28;19965;-72
2023/02/04 14:34:20;;;;;;;;;;;5.50;99.90;;;;;;5069962;28;20028;-72
2023/02/04 14:37:11;;;;;;;;;;;5.50;99.90;;;;;;5071711;28;19925;-72
2023/02/04 14:39:47;;;;;;;;;;;5.60;99.90;;;;;;5070604;28;19925;-72
2023/02/04 14:45:24;;;;;;;;;;;5.80;99.90;;;;;;5070050;28;19924;-72
2023/02/04 14:47:59;;;;;;;;;;;5.90;99.90;;;;;;5057421;28;20444;-72
2023/02/04 14:50:49;;;;;;;;;;;6.00;99.90;;;;;;5064523;28;19925;-71
2023/02/04 14:53:43;;;;;;;;;;;6.10;99.90;;;;;;5063791;28;19924;-72
2023/02/04 14:56:29;;;;;;;;;;;6.10;99.90;;;;;;5045501;28;19932;-73
2023/02/04 14:59:22;;;;;;;;;;;6.00;99.90;;;;;;5018762;28;20478;-71
2023/02/04 15:01:55;;;;;;;;;;;6.00;99.90;;;;;;5057380;28;20308;-72
2023/02/04 15:04:49;;;;;;;;;;;6.00;99.90;;;;;;5037612;28;19932;-71
2023/02/04 15:07:40;;;;;;;;;;;5.90;99.90;;;;;;5023315;28;20002;-73
2023/02/04 15:10:25;;;;;;;;;;;5.70;99.90;;;;;;5050153;28;19932;-73
2023/02/04 15:13:02;;;;;;;;;;;5.70;99.90;;;;;;5046356;28;19982;-72
2023/02/04 15:15:51;;;;;;;;;;;5.60;99.90;;;;;;5048112;28;19924;-73
2023/02/04 15:18:39;;;;;;;;;;;5.60;99.90;;;;;;5048743;28;20512;-73
2023/02/04 15:21:31;;;;;;;;;;;5.60;99.90;;;;;;5064691;28;19924;-72